Time;durP1;ratioP1;P1;durP2;ratioP2;P2;SDS_P1;SDS_P2;PMS_P1;PMS_P2;Temp;Humidity;BMP_temperature;BMP_pressure;BME280_temperature;BME280_humidity;BME280_pressure;Samples;Min_cycle;Max_cycle;Signal;HPM_P1;HPM_P2
2022/01/06 00:02:02;;;;;;;10.67;2.20;;;5.90;98.40;;;;;;5177184;27;20215;-78
2022/01/06 00:04:28;;;;;;;9.03;2.00;;;5.70;99.10;;;;;;5173269;27;20174;-84
2022/01/06 00:06:53;;;;;;;9.87;2.60;;;5.60;99.70;;;;;;5145423;27;20210;-83
2022/01/06 00:09:21;;;;;;;8.43;2.53;;;5.50;99.90;;;;;;5151791;27;20200;-85
2022/01/06 00:11:50;;;;;;;9.37;2.20;;;5.30;99.90;;;;;;5127546;27;20178;-86
2022/01/06 00:24:51;;;;;;;6.00;1.73;;;5.70;99.70;;;;;;5168990;27;20222;-86
2022/01/06 00:27:16;;;;;;;8.77;1.97;;;5.60;99.20;;;;;;5143271;27;20184;-86
2022/01/06 00:29:43;;;;;;;10.67;2.77;;;5.60;99.10;;;;;;5162931;27;20165;-86
2022/01/06 00:32:10;;;;;;;6.83;1.70;;;5.60;98.50;;;;;;5161881;27;20169;-85
2022/01/06 00:34:36;;;;;;;9.37;2.60;;;5.70;98.30;;;;;;5161610;27;20182;-85
2022/01/06 00:37:02;;;;;;;7.83;2.47;;;5.80;98.00;;;;;;5141619;27;20209;-86
2022/01/06 00:39:30;;;;;;;8.00;1.90;;;5.80;97.80;;;;;;5160511;27;20173;-81
2022/01/06 00:41:58;;;;;;;7.10;2.37;;;6.00;97.10;;;;;;5140280;27;20652;-81
2022/01/06 00:44:24;;;;;;;6.10;1.80;;;6.10;96.80;;;;;;5158021;27;20179;-85
2022/01/06 00:46:50;;;;;;;10.63;2.40;;;6.20;96.20;;;;;;5139703;27;20177;-80
2022/01/06 00:49:22;;;;;;;9.50;2.00;;;6.30;95.60;;;;;;5140694;27;20222;-86
2022/01/06 00:51:48;;;;;;;10.83;2.80;;;6.50;95.20;;;;;;5159704;27;20177;-81
2022/01/06 00:54:14;;;;;;;7.10;1.93;;;6.30;95.00;;;;;;5144962;27;20196;-85
2022/01/06 00:56:40;;;;;;;8.20;2.07;;;6.20;94.10;;;;;;5163140;27;20276;-82
2022/01/06 00:59:06;;;;;;;6.40;2.17;;;6.10;95.20;;;;;;5169380;27;20207;-80
2022/01/06 01:01:32;;;;;;;9.90;2.40;;;6.20;95.90;;;;;;5179771;27;20197;-84
2022/01/06 01:03:58;;;;;;;4.93;1.50;;;6.00;96.40;;;;;;5147470;27;20218;-83
2022/01/06 01:06:26;;;;;;;9.00;1.80;;;5.90;97.10;;;;;;5181954;27;20185;-80
2022/01/06 01:09:32;;;;;;;4.40;1.67;;;5.80;98.00;;;;;;5174802;27;20166;-85
2022/01/06 01:12:02;;;;;;;4.03;2.10;;;5.60;99.00;;;;;;5139742;27;20185;-85
2022/01/06 01:14:33;;;;;;;6.37;1.60;;;5.40;99.90;;;;;;5160050;27;20188;-86
2022/01/06 01:17:02;;;;;;;6.80;1.90;;;5.40;99.90;;;;;;5133000;27;20202;-85
2022/01/06 01:19:29;;;;;;;6.80;1.90;;;5.40;99.90;;;;;;5144263;27;20165;-79
2022/01/06 01:21:56;;;;;;;5.90;2.33;;;5.40;99.90;;;;;;5163277;27;20168;-80
2022/01/06 01:24:23;;;;;;;8.13;2.20;;;5.30;99.90;;;;;;5153649;27;20185;-81
2022/01/06 01:26:52;;;;;;;7.80;2.33;;;5.30;99.90;;;;;;5161141;27;20232;-79
2022/01/06 01:29:20;;;;;;;5.50;2.27;;;5.50;99.90;;;;;;5176598;27;20177;-81
2022/01/06 01:31:51;;;;;;;6.93;2.20;;;5.60;99.90;;;;;;5135305;27;20166;-82
2022/01/06 01:34:23;;;;;;;6.63;2.27;;;5.50;99.90;;;;;;5164236;27;20202;-84
2022/01/06 01:36:52;;;;;;;5.90;1.93;;;5.40;99.90;;;;;;5132016;27;20220;-81
2022/01/06 01:39:19;;;;;;;6.33;2.47;;;5.40;99.90;;;;;;5141176;27;20177;-82
2022/01/06 01:41:44;;;;;;;5.33;2.07;;;5.30;99.90;;;;;;5139053;27;20192;-85
2022/01/06 01:44:15;;;;;;;7.83;2.43;;;5.30;99.90;;;;;;5138002;27;20678;-86
2022/01/06 01:46:45;;;;;;;9.80;2.70;;;5.30;99.90;;;;;;5137915;27;20211;-81
2022/01/06 01:51:47;;;;;;;8.73;3.20;;;5.30;99.90;;;;;;5139373;27;20169;-80
2022/01/06 01:54:13;;;;;;;6.70;2.47;;;5.40;99.90;;;;;;5138153;27;20657;-85
2022/01/06 01:56:39;;;;;;;8.87;3.10;;;5.60;99.90;;;;;;5141415;27;20177;-85
2022/01/06 01:59:05;;;;;;;7.03;2.77;;;5.60;99.90;;;;;;5144132;27;20181;-84
2022/01/06 02:01:30;;;;;;;5.57;2.40;;;5.40;99.90;;;;;;5166614;27;20272;-84
2022/01/06 02:03:56;;;;;;;6.03;2.10;;;5.40;99.90;;;;;;5159838;27;20683;-87
2022/01/06 02:06:22;;;;;;;8.47;2.43;;;5.30;99.90;;;;;;5157128;27;20200;-81
2022/01/06 02:08:48;;;;;;;7.63;2.43;;;5.30;99.90;;;;;;5156247;27;20242;-81
2022/01/06 02:11:15;;;;;;;10.60;2.63;;;5.30;99.90;;;;;;5136723;27;20552;-83
2022/01/06 02:13:47;;;;;;;7.17;2.63;;;5.30;99.90;;;;;;5155687;27;20188;-84
2022/01/06 02:16:14;;;;;;;9.47;2.60;;;5.40;99.90;;;;;;5140553;27;20182;-85
2022/01/06 02:18:39;;;;;;;7.77;3.20;;;5.40;99.90;;;;;;5170203;27;20286;-81
2022/01/06 02:21:05;;;;;;;8.37;3.20;;;5.30;99.90;;;;;;5160527;27;20169;-82
2022/01/06 02:23:31;;;;;;;12.70;3.60;;;5.40;99.90;;;;;;5137732;27;20207;-84
2022/01/06 02:25:58;;;;;;;12.80;3.60;;;5.70;99.90;;;;;;5156277;27;20177;-84
2022/01/06 02:28:23;;;;;;;11.33;3.60;;;5.90;99.90;;;;;;5156573;27;20176;-82
2022/01/06 02:30:51;;;;;;;14.53;3.37;;;5.90;99.90;;;;;;5137865;27;20177;-81
2022/01/06 02:33:18;;;;;;;11.97;3.63;;;6.00;99.90;;;;;;5137359;27;20169;-85
2022/01/06 02:35:44;;;;;;;15.53;4.20;;;6.10;99.90;;;;;;5137102;27;20186;-80
2022/01/06 02:38:11;;;;;;;14.33;3.90;;;5.90;99.90;;;;;;5136934;27;20201;-81
2022/01/06 02:40:37;;;;;;;15.23;4.00;;;6.00;99.90;;;;;;5145483;27;20173;-82
2022/01/06 02:43:06;;;;;;;20.57;3.87;;;5.90;99.90;;;;;;5157517;27;20283;-87
2022/01/06 02:45:32;;;;;;;11.57;4.20;;;6.00;99.90;;;;;;5140987;27;20178;-81
2022/01/06 02:48:00;;;;;;;23.93;5.47;;;6.00;99.90;;;;;;5139969;27;20192;-82
2022/01/06 02:50:26;;;;;;;10.10;3.53;;;6.00;99.80;;;;;;5161164;27;20169;-82
2022/01/06 02:52:52;;;;;;;17.47;4.63;;;5.90;99.90;;;;;;5165840;27;20229;-78
2022/01/06 02:55:19;;;;;;;20.37;5.70;;;5.80;99.90;;;;;;5150373;27;20172;-79
2022/01/06 02:57:45;;;;;;;20.47;4.97;;;5.80;99.90;;;;;;5160503;27;20204;-80
2022/01/06 03:00:15;;;;;;;18.97;5.10;;;5.80;99.90;;;;;;5160941;27;20161;-80
2022/01/06 03:02:43;;;;;;;15.67;5.13;;;5.60;99.90;;;;;;5175951;27;20593;-82
2022/01/06 03:05:12;;;;;;;15.07;4.57;;;5.30;99.90;;;;;;5164571;27;20226;-84
2022/01/06 03:07:40;;;;;;;13.97;4.90;;;5.10;99.90;;;;;;5135898;27;20222;-84
2022/01/06 03:10:12;;;;;;;19.93;5.33;;;5.10;99.90;;;;;;5136606;27;20600;-82
2022/01/06 03:12:41;;;;;;;14.47;5.30;;;5.10;99.90;;;;;;5156099;27;20511;-84
2022/01/06 03:15:11;;;;;;;19.97;5.00;;;5.10;99.90;;;;;;5136860;27;20188;-80
2022/01/06 03:17:39;;;;;;;12.67;4.50;;;5.20;99.90;;;;;;5136866;27;20684;-80
2022/01/06 03:20:07;;;;;;;11.93;3.80;;;5.30;99.90;;;;;;5139006;27;20655;-86
2022/01/06 03:22:33;;;;;;;13.10;4.37;;;5.40;99.90;;;;;;5140536;27;20184;-90
2022/01/06 03:24:59;;;;;;;10.53;3.10;;;5.50;99.90;;;;;;5143452;27;20170;-80
2022/01/06 03:27:25;;;;;;;14.33;3.87;;;5.70;99.90;;;;;;5167320;27;20177;-82
2022/01/06 03:29:51;;;;;;;11.30;3.33;;;5.70;99.90;;;;;;5170096;27;20170;-81
2022/01/06 03:32:18;;;;;;;12.23;3.70;;;5.90;99.90;;;;;;5156311;27;20181;-86
2022/01/06 03:34:45;;;;;;;13.37;4.33;;;5.80;99.80;;;;;;5172482;27;20180;-82
2022/01/06 03:37:12;;;;;;;13.60;4.33;;;6.00;99.60;;;;;;5168613;27;20205;-80
2022/01/06 03:39:39;;;;;;;14.93;4.43;;;6.00;99.30;;;;;;5168672;27;20174;-82
2022/01/06 03:42:06;;;;;;;12.63;4.37;;;5.90;99.20;;;;;;5170080;27;20169;-81
2022/01/06 03:44:32;;;;;;;11.07;4.00;;;5.80;99.80;;;;;;5171079;27;20206;-81
2022/01/06 03:47:00;;;;;;;14.67;4.07;;;5.70;99.90;;;;;;5164819;27;20170;-88
2022/01/06 03:49:26;;;;;;;12.53;5.57;;;5.70;99.90;;;;;;5179817;27;20181;-81
2022/01/06 03:51:53;;;;;;;13.33;4.13;;;5.80;99.90;;;;;;5153159;27;20550;-82
2022/01/06 03:54:18;;;;;;;16.80;4.20;;;5.70;99.90;;;;;;5155172;27;20231;-80
2022/01/06 03:56:50;;;;;;;8.23;3.50;;;5.70;99.90;;;;;;5172672;27;20185;-83
2022/01/06 03:59:17;;;;;;;10.87;3.87;;;5.80;99.90;;;;;;5179717;27;20199;-82
2022/01/06 04:01:43;;;;;;;12.80;4.27;;;5.90;99.90;;;;;;5151938;27;20661;-86
2022/01/06 04:04:10;;;;;;;12.90;4.00;;;5.80;99.90;;;;;;5158673;27;20181;-79
2022/01/06 04:06:37;;;;;;;13.43;4.33;;;5.80;99.90;;;;;;5177857;27;20238;-82
2022/01/06 04:09:03;;;;;;;11.37;4.13;;;5.60;99.90;;;;;;5164648;27;20219;-80
2022/01/06 04:11:35;;;;;;;14.37;4.27;;;5.60;99.90;;;;;;5175305;27;20190;-84
2022/01/06 04:14:03;;;;;;;8.30;3.93;;;5.70;99.90;;;;;;5163077;27;20170;-86
2022/01/06 04:16:34;;;;;;;15.77;4.50;;;5.70;99.90;;;;;;5154264;27;20182;-82
2022/01/06 04:19:00;;;;;;;13.43;4.43;;;5.90;99.90;;;;;;5183104;27;20184;-82
2022/01/06 04:21:25;;;;;;;16.40;5.00;;;5.90;99.90;;;;;;5164239;27;20178;-81
2022/01/06 04:23:53;;;;;;;15.20;5.37;;;5.90;99.90;;;;;;5141890;27;20186;-86
2022/01/06 04:26:32;;;;;;;13.10;4.60;;;5.70;99.90;;;;;;5142468;27;20200;-86
2022/01/06 04:28:58;;;;;;;14.20;5.70;;;5.60;99.90;;;;;;5143174;27;20272;-82
2022/01/06 04:31:24;;;;;;;13.27;5.10;;;5.50;99.90;;;;;;5139790;27;20197;-85
2022/01/06 04:33:49;;;;;;;16.33;5.33;;;5.60;99.90;;;;;;5163901;27;20245;-84
2022/01/06 04:36:15;;;;;;;13.03;4.90;;;5.70;99.90;;;;;;5148672;27;20630;-83
2022/01/06 04:38:41;;;;;;;17.17;4.93;;;5.60;99.90;;;;;;5162841;27;20209;-81
2022/01/06 04:41:06;;;;;;;18.03;4.70;;;5.70;99.90;;;;;;5139641;27;20189;-81
2022/01/06 04:43:32;;;;;;;17.50;4.73;;;5.60;99.90;;;;;;5162958;27;20221;-79
2022/01/06 04:45:59;;;;;;;13.60;4.10;;;5.60;99.90;;;;;;5154970;27;20173;-81
2022/01/06 04:48:25;;;;;;;16.17;5.13;;;5.60;99.90;;;;;;5158804;27;20188;-80
2022/01/06 04:50:51;;;;;;;15.27;4.03;;;5.60;99.90;;;;;;5179348;27;20185;-84
2022/01/06 04:53:16;;;;;;;12.43;4.40;;;5.60;99.90;;;;;;5157811;27;20196;-86
2022/01/06 04:55:42;;;;;;;17.33;4.40;;;5.70;99.90;;;;;;5161119;27;20638;-81
2022/01/06 04:58:09;;;;;;;16.70;4.97;;;5.60;99.90;;;;;;5157813;27;20205;-86
2022/01/06 05:00:35;;;;;;;13.50;4.60;;;5.70;99.90;;;;;;5158001;27;20170;-82
2022/01/06 05:03:00;;;;;;;15.33;4.70;;;5.70;99.90;;;;;;5138972;27;20212;-81
2022/01/06 05:05:26;;;;;;;15.13;4.97;;;5.80;99.90;;;;;;5159098;27;20257;-83
2022/01/06 05:07:53;;;;;;;14.90;4.10;;;5.80;99.90;;;;;;5158765;27;20173;-85
2022/01/06 05:10:19;;;;;;;19.23;5.43;;;5.80;99.90;;;;;;5138925;27;20740;-81
2022/01/06 05:12:45;;;;;;;15.17;4.83;;;5.80;99.90;;;;;;5157846;27;20201;-85
2022/01/06 05:15:13;;;;;;;16.63;4.67;;;5.70;99.90;;;;;;5157716;27;20169;-85
2022/01/06 05:17:41;;;;;;;13.73;3.90;;;5.70;99.90;;;;;;5139892;27;20224;-88
2022/01/06 05:20:07;;;;;;;12.13;4.20;;;5.80;99.90;;;;;;5142322;27;20170;-81
2022/01/06 05:22:35;;;;;;;17.50;4.70;;;5.80;99.90;;;;;;5144164;27;20617;-86
2022/01/06 05:25:01;;;;;;;20.27;4.40;;;5.80;99.90;;;;;;5163688;27;20161;-83
2022/01/06 05:27:27;;;;;;;12.40;4.57;;;5.90;99.90;;;;;;5165092;27;20540;-80
2022/01/06 05:29:52;;;;;;;17.90;4.03;;;5.80;99.90;;;;;;5171638;27;20519;-85
2022/01/06 05:32:18;;;;;;;16.73;4.20;;;5.80;99.90;;;;;;5143204;27;20169;-85
2022/01/06 05:34:44;;;;;;;14.97;4.43;;;5.80;99.90;;;;;;5142457;27;20185;-86
2022/01/06 05:37:09;;;;;;;14.97;4.67;;;5.80;99.90;;;;;;5140671;27;20237;-85
2022/01/06 05:39:35;;;;;;;12.67;4.60;;;5.80;99.90;;;;;;5169955;27;20162;-79
2022/01/06 05:42:01;;;;;;;13.40;4.20;;;5.70;99.90;;;;;;5156027;27;20174;-84
2022/01/06 05:44:28;;;;;;;18.17;3.93;;;5.80;99.90;;;;;;5144169;27;20173;-83
2022/01/06 05:46:53;;;;;;;17.67;5.13;;;5.90;99.90;;;;;;5139932;27;20287;-85
2022/01/06 05:49:19;;;;;;;16.73;5.50;;;5.60;99.90;;;;;;5123317;27;20178;-82
2022/01/06 05:51:45;;;;;;;18.00;4.77;;;5.70;99.90;;;;;;5157385;27;20574;-81
2022/01/06 05:54:10;;;;;;;16.67;5.13;;;5.60;99.90;;;;;;5158530;27;20201;-87
2022/01/06 05:56:36;;;;;;;17.20;4.50;;;5.70;99.90;;;;;;5139601;27;20609;-86
2022/01/06 05:59:02;;;;;;;15.97;4.83;;;5.50;99.90;;;;;;5157803;27;20174;-83
2022/01/06 06:01:28;;;;;;;18.83;4.97;;;5.70;99.90;;;;;;5157162;27;20248;-82
2022/01/06 06:03:55;;;;;;;16.73;4.87;;;5.80;99.90;;;;;;5158547;27;20176;-83
2022/01/06 06:06:21;;;;;;;20.00;4.93;;;5.70;99.90;;;;;;5160459;27;20158;-78
2022/01/06 06:08:46;;;;;;;16.30;6.10;;;5.60;99.90;;;;;;5180624;27;20249;-84
2022/01/06 06:11:12;;;;;;;16.47;4.90;;;5.70;99.90;;;;;;5143871;27;20221;-82
2022/01/06 06:13:38;;;;;;;16.87;4.33;;;5.50;99.90;;;;;;5159642;27;20169;-87
2022/01/06 06:16:04;;;;;;;15.53;4.33;;;5.60;99.90;;;;;;5156642;27;20621;-84
2022/01/06 06:18:29;;;;;;;16.93;4.43;;;5.50;99.90;;;;;;5157612;27;20289;-81
2022/01/06 06:20:55;;;;;;;16.43;4.70;;;5.60;99.90;;;;;;5138324;27;20704;-80
2022/01/06 06:23:21;;;;;;;17.90;4.97;;;5.70;99.90;;;;;;5157051;27;20559;-85
2022/01/06 06:25:47;;;;;;;16.63;4.90;;;5.60;99.90;;;;;;5158102;27;20257;-85
2022/01/06 06:28:12;;;;;;;24.33;5.20;;;5.50;99.90;;;;;;5152132;27;20213;-82
2022/01/06 06:30:38;;;;;;;17.63;5.13;;;5.50;99.90;;;;;;5171764;27;20250;-84
2022/01/06 06:33:04;;;;;;;15.30;5.63;;;5.40;99.90;;;;;;5145369;27;20195;-80
2022/01/06 06:35:35;;;;;;;21.83;5.20;;;5.50;99.90;;;;;;5143827;27;20557;-83
2022/01/06 06:38:01;;;;;;;19.43;5.20;;;5.60;99.90;;;;;;5121326;27;20210;-84
2022/01/06 06:40:27;;;;;;;17.23;4.87;;;5.60;99.90;;;;;;5159194;27;20216;-80
2022/01/06 06:42:53;;;;;;;16.63;4.87;;;5.60;99.90;;;;;;5135776;27;20276;-84
2022/01/06 06:45:21;;;;;;;16.97;4.93;;;5.50;99.90;;;;;;5121207;27;20629;-81
2022/01/06 06:47:47;;;;;;;17.97;6.20;;;5.50;99.90;;;;;;5124635;27;20170;-79
2022/01/06 06:50:16;;;;;;;14.57;5.43;;;5.50;99.90;;;;;;5155959;27;20185;-78
2022/01/06 06:52:43;;;;;;;17.23;5.93;;;5.60;99.90;;;;;;5156196;27;20191;-83
2022/01/06 06:55:10;;;;;;;20.13;5.77;;;5.60;99.90;;;;;;5117405;28;20178;-82
2022/01/06 06:57:36;;;;;;;15.87;5.10;;;5.60;99.90;;;;;;5135559;27;20209;-83
2022/01/06 07:00:04;;;;;;;17.93;5.63;;;5.50;99.90;;;;;;5134470;27;20170;-85
2022/01/06 07:02:31;;;;;;;12.87;5.03;;;5.40;99.90;;;;;;5135419;27;20193;-81
2022/01/06 07:04:57;;;;;;;20.80;5.33;;;5.40;99.90;;;;;;5130505;27;20220;-81
2022/01/06 07:07:23;;;;;;;15.83;5.13;;;5.40;99.90;;;;;;5156693;28;20190;-80
2022/01/06 07:09:50;;;;;;;16.80;5.20;;;5.60;99.90;;;;;;5151450;27;20182;-82
2022/01/06 07:12:16;;;;;;;16.33;4.77;;;5.60;99.90;;;;;;5151248;27;20166;-84
2022/01/06 07:14:42;;;;;;;11.63;4.77;;;5.40;99.90;;;;;;5149984;27;20695;-84
2022/01/06 07:17:08;;;;;;;16.17;6.03;;;5.40;99.90;;;;;;5155199;28;20189;-81
2022/01/06 07:19:34;;;;;;;24.20;5.70;;;5.40;99.90;;;;;;5136997;28;20212;-85
2022/01/06 07:22:00;;;;;;;20.70;5.77;;;5.50;99.90;;;;;;5152404;27;20159;-83
2022/01/06 07:24:26;;;;;;;18.20;6.00;;;5.40;99.90;;;;;;5149379;27;20189;-79
2022/01/06 07:26:52;;;;;;;16.70;6.40;;;5.60;99.90;;;;;;5139533;27;20182;-79
2022/01/06 07:29:18;;;;;;;16.47;5.83;;;5.40;99.90;;;;;;5155218;28;20182;-80
2022/01/06 07:31:44;;;;;;;19.67;5.57;;;5.40;99.90;;;;;;5131562;28;20196;-85
2022/01/06 07:34:09;;;;;;;15.83;5.27;;;5.30;99.90;;;;;;5138547;28;20162;-80
2022/01/06 07:36:35;;;;;;;15.80;5.40;;;5.30;99.90;;;;;;5139423;28;20249;-80
2022/01/06 07:39:02;;;;;;;14.60;5.50;;;5.30;99.90;;;;;;5139379;28;20234;-82
2022/01/06 07:41:27;;;;;;;18.23;5.13;;;5.20;99.90;;;;;;5158019;27;20170;-82
2022/01/06 07:43:56;;;;;;;18.50;5.57;;;5.20;99.90;;;;;;5156762;27;20187;-81
2022/01/06 07:46:22;;;;;;;15.47;5.50;;;5.40;99.90;;;;;;5154809;28;20188;-84
2022/01/06 07:48:55;;;;;;;15.90;5.37;;;5.50;99.90;;;;;;5153792;27;20162;-84
2022/01/06 07:51:29;;;;;;;24.60;7.53;;;5.50;99.90;;;;;;5160676;27;20154;-82
2022/01/06 07:53:58;;;;;;;17.97;6.23;;;5.50;99.90;;;;;;5132484;27;20178;-80
2022/01/06 07:56:24;;;;;;;15.57;5.50;;;5.40;99.90;;;;;;5149154;27;20173;-81
2022/01/06 07:58:53;;;;;;;16.47;5.50;;;5.40;99.90;;;;;;5145183;27;20692;-87
2022/01/06 08:01:21;;;;;;;17.67;5.33;;;5.40;99.90;;;;;;5153717;27;20194;-87
2022/01/06 08:03:46;;;;;;;16.13;5.00;;;5.40;99.90;;;;;;5158049;27;20192;-82
2022/01/06 08:06:15;;;;;;;16.77;5.33;;;5.30;99.90;;;;;;5139004;27;20178;-81
2022/01/06 08:08:42;;;;;;;17.87;5.90;;;5.30;99.90;;;;;;5161463;27;20182;-80
2022/01/06 08:11:08;;;;;;;18.50;6.03;;;5.50;99.90;;;;;;5167087;27;20190;-84
2022/01/06 08:13:34;;;;;;;12.47;4.77;;;5.40;99.90;;;;;;5144999;27;20177;-82
2022/01/06 08:16:02;;;;;;;15.93;4.80;;;5.40;99.90;;;;;;5136044;27;20180;-83
2022/01/06 08:18:30;;;;;;;14.97;5.47;;;5.50;99.90;;;;;;5139158;27;20201;-89
2022/01/06 08:20:56;;;;;;;24.77;8.90;;;5.70;99.90;;;;;;5139155;27;20273;-86
2022/01/06 08:23:23;;;;;;;34.80;16.27;;;5.80;99.90;;;;;;5139862;27;20177;-88
2022/01/06 08:25:49;;;;;;;16.13;7.43;;;5.80;99.90;;;;;;5142434;27;20173;-88
2022/01/06 08:28:15;;;;;;;19.33;7.50;;;5.80;99.90;;;;;;5161125;27;20182;-86
2022/01/06 08:30:41;;;;;;;18.63;6.77;;;6.00;99.90;;;;;;5150646;27;20161;-84
2022/01/06 08:33:07;;;;;;;16.80;6.70;;;5.80;99.90;;;;;;5174796;27;20165;-83
2022/01/06 08:35:36;;;;;;;16.93;6.93;;;5.70;99.90;;;;;;5154424;27;20258;-89
2022/01/06 08:38:05;;;;;;;17.63;6.43;;;5.70;99.90;;;;;;5137721;27;20332;-92
2022/01/06 08:40:32;;;;;;;16.67;6.10;;;5.70;99.90;;;;;;5143254;27;20173;-90
2022/01/06 08:42:57;;;;;;;16.77;6.37;;;5.80;99.90;;;;;;5152660;27;20174;-87
2022/01/06 08:45:25;;;;;;;19.07;7.33;;;5.90;99.90;;;;;;5167413;27;20162;-92
2022/01/06 08:47:51;;;;;;;16.13;6.80;;;5.90;99.90;;;;;;5165945;27;20251;-90
2022/01/06 08:50:19;;;;;;;12.97;5.73;;;5.90;99.90;;;;;;5166038;27;20166;-84
2022/01/06 08:52:46;;;;;;;13.43;5.57;;;6.00;99.90;;;;;;5151043;27;20225;-88
2022/01/06 08:55:12;;;;;;;18.77;7.10;;;6.00;99.90;;;;;;5148473;27;20180;-88
2022/01/06 08:57:40;;;;;;;14.40;6.20;;;6.00;99.90;;;;;;5152583;27;20190;-88
2022/01/06 09:00:30;;;;;;;16.03;6.80;;;6.20;99.90;;;;;;5152019;27;20225;-84
2022/01/06 09:02:58;;;;;;;16.03;6.50;;;6.10;99.90;;;;;;5168809;27;20193;-82
2022/01/06 09:05:42;;;;;;;18.97;6.20;;;6.10;99.90;;;;;;5149689;27;20545;-81
2022/01/06 09:08:12;;;;;;;18.60;6.23;;;6.00;99.90;;;;;;5171293;27;20158;-85
2022/01/06 09:10:44;;;;;;;17.03;5.40;;;6.00;99.90;;;;;;5171643;27;20197;-87
2022/01/06 09:13:13;;;;;;;14.40;5.63;;;6.00;99.90;;;;;;5153294;27;20649;-89
2022/01/06 09:15:38;;;;;;;15.20;5.53;;;6.30;99.90;;;;;;5166607;27;20162;-89
2022/01/06 09:18:07;;;;;;;21.43;6.10;;;6.30;99.90;;;;;;5128622;27;20217;-87
2022/01/06 09:20:33;;;;;;;13.47;5.70;;;6.30;99.90;;;;;;5178106;27;20166;-84
2022/01/06 09:22:59;;;;;;;16.20;5.93;;;6.30;99.90;;;;;;5176919;27;20180;-84
2022/01/06 09:25:24;;;;;;;13.63;4.93;;;6.30;99.90;;;;;;5158881;27;20165;-87
2022/01/06 09:27:50;;;;;;;11.60;4.50;;;6.30;99.90;;;;;;5176305;27;20759;-86
2022/01/06 09:30:19;;;;;;;13.33;4.87;;;6.30;99.90;;;;;;5180561;27;20225;-88
2022/01/06 09:32:45;;;;;;;12.43;4.63;;;6.20;99.90;;;;;;5160483;27;20166;-87
2022/01/06 09:35:11;;;;;;;10.33;4.27;;;6.20;99.90;;;;;;5180425;27;20173;-85
2022/01/06 09:37:40;;;;;;;17.37;5.37;;;6.30;99.80;;;;;;5162032;27;20217;-87
2022/01/06 09:40:09;;;;;;;11.17;4.47;;;6.50;98.70;;;;;;5163327;27;20176;-86
2022/01/06 09:42:41;;;;;;;16.63;5.93;;;6.50;98.30;;;;;;5163102;27;20181;-86
2022/01/06 09:45:11;;;;;;;19.63;6.33;;;6.50;98.90;;;;;;5173454;27;20176;-85
2022/01/06 09:47:41;;;;;;;20.17;7.37;;;6.30;99.70;;;;;;5163063;27;20271;-84
2022/01/06 09:53:29;;;;;;;18.73;6.20;;;6.30;99.90;;;;;;5176912;27;20172;-82
2022/01/06 09:56:18;;;;;;;20.17;6.73;;;6.30;99.90;;;;;;5145900;27;20154;-84
2022/01/06 09:58:47;;;;;;;15.30;6.60;;;6.30;99.90;;;;;;5177080;27;20245;-82
2022/01/06 10:01:15;;;;;;;17.63;6.70;;;6.30;99.90;;;;;;5175553;27;20229;-86
2022/01/06 10:04:12;;;;;;;17.17;6.53;;;6.20;99.90;;;;;;5149581;27;20197;-86
2022/01/06 10:06:38;;;;;;;15.93;6.03;;;6.30;99.90;;;;;;5185236;27;20189;-86
2022/01/06 10:09:05;;;;;;;17.13;7.20;;;6.40;99.90;;;;;;5169282;27;20187;-84
2022/01/06 10:11:34;;;;;;;17.63;8.10;;;6.20;99.90;;;;;;5175401;27;20162;-87
2022/01/06 10:14:03;;;;;;;15.27;7.03;;;6.10;99.90;;;;;;5161690;27;20157;-89
2022/01/06 10:16:57;;;;;;;22.23;8.93;;;6.20;99.90;;;;;;5157292;27;20250;-88
2022/01/06 10:19:26;;;;;;;18.20;7.33;;;6.00;99.90;;;;;;5173719;27;20203;-88
2022/01/06 10:22:19;;;;;;;20.27;8.27;;;6.20;99.90;;;;;;5147726;27;20177;-89
2022/01/06 10:25:06;;;;;;;17.57;7.53;;;6.00;99.90;;;;;;5171837;27;20176;-85
2022/01/06 10:27:32;;;;;;;16.90;7.10;;;6.10;99.90;;;;;;5161418;27;20191;-82
2022/01/06 10:29:58;;;;;;;20.00;9.37;;;6.10;99.90;;;;;;5160528;27;20264;-87
2022/01/06 10:32:32;;;;;;;18.07;9.27;;;6.20;99.90;;;;;;5179006;27;20187;-83
2022/01/06 10:35:08;;;;;;;15.63;8.03;;;6.10;99.90;;;;;;5177037;27;20209;-87
2022/01/06 10:37:43;;;;;;;17.30;8.57;;;6.00;99.90;;;;;;5160808;27;20197;-83
2022/01/06 10:40:24;;;;;;;19.37;8.80;;;6.20;99.90;;;;;;5157682;27;20165;-83
2022/01/06 10:42:57;;;;;;;16.03;8.03;;;6.10;99.90;;;;;;5155883;27;20166;-84
2022/01/06 10:45:38;;;;;;;17.77;9.07;;;6.20;99.50;;;;;;5151044;27;20187;-83
2022/01/06 10:51:50;;;;;;;21.57;10.17;;;6.00;99.90;;;;;;5163524;27;20172;-90
2022/01/06 10:54:29;;;;;;;21.47;10.30;;;6.10;99.90;;;;;;5150684;27;20177;-86
2022/01/06 10:57:09;;;;;;;24.07;9.80;;;6.20;99.90;;;;;;5150040;27;20165;-89
2022/01/06 10:59:38;;;;;;;22.07;9.63;;;6.20;99.90;;;;;;5136466;27;20233;-85
2022/01/06 11:02:06;;;;;;;17.23;9.20;;;6.30;99.80;;;;;;5139865;27;20185;-81
2022/01/06 11:04:35;;;;;;;20.70;10.10;;;6.40;99.10;;;;;;5150389;27;20173;-85
2022/01/06 11:07:01;;;;;;;20.30;8.60;;;6.30;99.30;;;;;;5133559;27;20173;-90
2022/01/06 11:09:38;;;;;;;19.63;9.17;;;6.20;99.20;;;;;;5151558;27;20200;-86
2022/01/06 11:12:26;;;;;;;15.37;8.33;;;6.50;99.20;;;;;;5169446;27;20180;-86
2022/01/06 11:15:00;;;;;;;25.43;9.90;;;6.40;99.40;;;;;;5177507;27;20206;-82
2022/01/06 11:17:30;;;;;;;18.40;8.37;;;6.20;99.90;;;;;;5160508;27;20201;-80
2022/01/06 11:20:25;;;;;;;20.17;9.77;;;6.10;99.90;;;;;;5161560;27;20184;-81
2022/01/06 11:22:56;;;;;;;20.63;10.50;;;6.10;99.90;;;;;;5158106;27;20184;-86
2022/01/06 11:25:42;;;;;;;21.97;9.80;;;6.20;99.90;;;;;;5158279;27;20237;-87
2022/01/06 11:28:10;;;;;;;21.07;10.40;;;6.20;99.90;;;;;;5156616;27;20185;-87
2022/01/06 11:33:58;;;;;;;24.80;11.87;;;6.30;99.20;;;;;;5171911;27;20176;-88
2022/01/06 11:40:07;;;;;;;25.77;12.53;;;6.30;98.60;;;;;;5149104;28;20165;-89
2022/01/06 11:42:34;;;;;;;20.97;12.30;;;6.20;99.00;;;;;;5156136;27;20145;-90
2022/01/06 11:45:01;;;;;;;30.17;14.17;;;6.00;99.30;;;;;;5148179;27;20242;-91
2022/01/06 11:47:36;;;;;;;23.80;13.13;;;6.00;99.90;;;;;;5127225;27;20283;-93
2022/01/06 11:50:16;;;;;;;19.97;12.97;;;6.00;99.90;;;;;;5160241;27;20177;-87
2022/01/06 11:52:56;;;;;;;23.73;14.00;;;6.20;99.90;;;;;;5159443;27;20184;-91
2022/01/06 11:56:22;;;;;;;24.27;13.23;;;6.20;99.90;;;;;;5163933;27;20276;-88
2022/01/06 11:59:12;;;;;;;21.37;12.77;;;6.20;99.80;;;;;;5170752;27;20213;-89
2022/01/06 12:01:50;;;;;;;25.77;14.33;;;6.20;99.70;;;;;;5172534;27;20166;-91
2022/01/06 12:04:41;;;;;;;27.00;14.50;;;6.10;99.90;;;;;;5171351;27;20211;-94
2022/01/06 12:07:09;;;;;;;22.53;14.33;;;6.20;99.90;;;;;;5164459;27;20197;-88
2022/01/06 12:09:35;;;;;;;22.57;12.93;;;6.30;99.40;;;;;;5140602;27;20208;-90
2022/01/06 12:12:06;;;;;;;23.40;14.53;;;6.40;99.10;;;;;;5157003;27;20231;-82
2022/01/06 12:14:33;;;;;;;19.17;12.10;;;6.30;98.30;;;;;;5175223;27;20185;-83
2022/01/06 12:17:15;;;;;;;24.77;14.57;;;6.30;98.40;;;;;;5182286;27;20180;-83
2022/01/06 12:20:24;;;;;;;21.13;13.23;;;6.30;99.00;;;;;;5181610;27;20170;-81
2022/01/06 12:23:00;;;;;;;20.93;12.67;;;6.50;98.10;;;;;;5180362;27;20245;-87
2022/01/06 12:26:15;;;;;;;25.57;14.20;;;6.50;97.00;;;;;;5162944;27;20210;-82
2022/01/06 12:28:50;;;;;;;23.77;14.40;;;6.40;97.70;;;;;;5177865;27;20175;-84
2022/01/06 12:31:42;;;;;;;25.07;15.40;;;6.30;98.50;;;;;;5180877;27;20162;-81
2022/01/06 12:34:15;;;;;;;30.57;15.47;;;6.50;97.70;;;;;;5143256;27;20589;-81
2022/01/06 12:36:57;;;;;;;25.73;14.30;;;6.40;96.80;;;;;;5159941;27;20225;-81
2022/01/06 12:40:09;;;;;;;25.50;15.40;;;6.50;96.90;;;;;;5159488;27;20283;-82
2022/01/06 12:42:47;;;;;;;25.83;15.10;;;6.70;96.40;;;;;;5139879;27;20537;-81
2022/01/06 12:45:17;;;;;;;30.40;15.50;;;6.90;95.60;;;;;;5138710;27;20229;-83
2022/01/06 12:47:49;;;;;;;32.83;15.10;;;7.10;94.80;;;;;;5158233;27;20173;-82
2022/01/06 12:50:18;;;;;;;28.57;14.33;;;7.20;93.40;;;;;;5164016;27;20191;-81
2022/01/06 12:53:03;;;;;;;25.23;13.77;;;7.10;93.60;;;;;;5174915;27;20196;-83
2022/01/06 12:55:30;;;;;;;29.13;14.40;;;7.00;94.10;;;;;;5189527;27;20166;-80
2022/01/06 12:58:18;;;;;;;28.87;13.00;;;6.90;95.10;;;;;;5177151;27;20205;-82
2022/01/06 13:01:12;;;;;;;21.83;12.27;;;6.70;95.70;;;;;;5180121;27;20161;-82
2022/01/06 13:04:04;;;;;;;26.27;13.90;;;6.70;96.20;;;;;;5145080;27;20189;-81
2022/01/06 13:06:36;;;;;;;22.00;11.60;;;6.80;96.60;;;;;;5172600;27;20141;-80
2022/01/06 13:09:48;;;;;;;17.40;9.87;;;6.80;96.00;;;;;;5118613;27;20197;-87
2022/01/06 13:12:25;;;;;;;23.73;11.07;;;6.80;95.40;;;;;;5177744;27;20169;-85
2022/01/06 13:14:52;;;;;;;20.23;10.47;;;7.00;94.40;;;;;;5163053;27;20201;-81
2022/01/06 13:17:26;;;;;;;22.30;10.50;;;6.90;93.90;;;;;;5159705;27;20265;-86
2022/01/06 13:19:55;;;;;;;24.13;10.70;;;6.90;94.60;;;;;;5175359;27;20181;-82
2022/01/06 13:23:12;;;;;;;17.47;9.80;;;6.90;94.60;;;;;;5152835;27;20232;-85
2022/01/06 13:25:38;;;;;;;21.50;10.63;;;7.00;92.40;;;;;;5164030;27;20709;-83
2022/01/06 13:28:17;;;;;;;25.23;10.50;;;7.10;92.80;;;;;;5166521;27;20241;-80
2022/01/06 13:30:46;;;;;;;30.27;12.43;;;7.10;93.80;;;;;;5178508;27;20166;-90